sensor_id;sensor_type;location;lat;lon;timestamp;pressure;altitude;pressure_sealevel;temperature;humidity
6204;BME280;3135;42.602;23.468;2022-11-09T00:01:20;93571.00;;;9.64;100.00
6204;BME280;3135;42.602;23.468;2022-11-09T00:03:46;93555.28;;;9.63;100.00
6204;BME280;3135;42.602;23.468;2022-11-09T00:06:12;93536.84;;;9.56;100.00
6204;BME280;3135;42.602;23.468;2022-11-09T00:08:39;93569.97;;;9.76;100.00
6204;BME280;3135;42.602;23.468;2022-11-09T00:11:07;93562.50;;;9.72;100.00
6204;BME280;3135;42.602;23.468;2022-11-09T00:13:37;93567.84;;;9.83;100.00
6204;BME280;3135;42.602;23.468;2022-11-09T00:16:04;93579.06;;;9.90;100.00
6204;BME280;3135;42.602;23.468;2022-11-09T00:18:30;93562.50;;;9.83;100.00
6204;BME280;3135;42.602;23.468;2022-11-09T00:20:56;93551.81;;;9.78;100.00
6204;BME280;3135;42.602;23.468;2022-11-09T00:23:21;93555.53;;;9.61;100.00
6204;BME280;3135;42.602;23.468;2022-11-09T00:25:47;93559.22;;;9.50;100.00
6204;BME280;3135;42.602;23.468;2022-11-09T00:28:13;93573.44;;;9.66;100.00
6204;BME280;3135;42.602;23.468;2022-11-09T00:30:39;93532.03;;;9.58;100.00
6204;BME280;3135;42.602;23.468;2022-11-09T00:33:05;93560.38;;;9.75;100.00
6204;BME280;3135;42.602;23.468;2022-11-09T00:35:30;93563.84;;;10.01;100.00
6204;BME280;3135;42.602;23.468;2022-11-09T00:37:56;93559.59;;;9.94;100.00
6204;BME280;3135;42.602;23.468;2022-11-09T00:40:21;93544.38;;;9.80;100.00
6204;BME280;3135;42.602;23.468;2022-11-09T00:42:47;93555.00;;;9.64;100.00
6204;BME280;3135;42.602;23.468;2022-11-09T00:45:12;93549.66;;;9.64;100.00
6204;BME280;3135;42.602;23.468;2022-11-09T00:47:37;93548.63;;;9.70;100.00
6204;BME280;3135;42.602;23.468;2022-11-09T00:50:04;93535.53;;;9.69;100.00
6204;BME280;3135;42.602;23.468;2022-11-09T00:52:29;93552.88;;;9.77;100.00
6204;BME280;3135;42.602;23.468;2022-11-09T00:54:55;93528.88;;;9.66;100.00
6204;BME280;3135;42.602;23.468;2022-11-09T00:57:20;93539.81;;;9.65;100.00
6204;BME280;3135;42.602;23.468;2022-11-09T00:59:46;93555.03;;;9.75;100.00
6204;BME280;3135;42.602;23.468;2022-11-09T01:02:11;93536.34;;;9.75;100.00
6204;BME280;3135;42.602;23.468;2022-11-09T01:04:36;93540.91;;;9.79;100.00
6204;BME280;3135;42.602;23.468;2022-11-09T01:07:02;93533.66;;;9.64;100.00
6204;BME280;3135;42.602;23.468;2022-11-09T01:09:27;93532.34;;;9.72;100.00
6204;BME280;3135;42.602;23.468;2022-11-09T01:11:54;93537.44;;;9.89;100.00
6204;BME280;3135;42.602;23.468;2022-11-09T01:14:19;93544.88;;;9.97;100.00
6204;BME280;3135;42.602;23.468;2022-11-09T01:16:44;93541.16;;;10.03;100.00
6204;BME280;3135;42.602;23.468;2022-11-09T01:19:10;93555.06;;;10.26;100.00
6204;BME280;3135;42.602;23.468;2022-11-09T01:21:36;93527.53;;;10.15;100.00
6204;BME280;3135;42.602;23.468;2022-11-09T01:24:01;93550.81;;;10.40;100.00
6204;BME280;3135;42.602;23.468;2022-11-09T01:26:27;93560.16;;;10.37;100.00
6204;BME280;3135;42.602;23.468;2022-11-09T01:28:53;93537.97;;;10.37;100.00
6204;BME280;3135;42.602;23.468;2022-11-09T01:31:20;93552.09;;;10.58;100.00
6204;BME280;3135;42.602;23.468;2022-11-09T01:33:46;93547.53;;;10.58;100.00
6204;BME280;3135;42.602;23.468;2022-11-09T01:36:15;93550.22;;;10.53;100.00
6204;BME280;3135;42.602;23.468;2022-11-09T01:38:41;93548.91;;;10.45;100.00
6204;BME280;3135;42.602;23.468;2022-11-09T01:41:11;93548.63;;;10.57;100.00
6204;BME280;3135;42.602;23.468;2022-11-09T01:43:36;93531.28;;;10.34;100.00
6204;BME280;3135;42.602;23.468;2022-11-09T01:48:38;93537.19;;;10.26;100.00
6204;BME280;3135;42.602;23.468;2022-11-09T01:51:23;93544.63;;;10.39;100.00
6204;BME280;3135;42.602;23.468;2022-11-09T01:53:53;93547.06;;;10.31;100.00
6204;BME280;3135;42.602;23.468;2022-11-09T01:56:21;93538.22;;;10.15;100.00
6204;BME280;3135;42.602;23.468;2022-11-09T01:59:17;93555.59;;;10.38;100.00
6204;BME280;3135;42.602;23.468;2022-11-09T02:01:45;93553.47;;;10.40;100.00
6204;BME280;3135;42.602;23.468;2022-11-09T02:04:50;93555.56;;;10.58;100.00
6204;BME280;3135;42.602;23.468;2022-11-09T02:07:19;93529.63;;;10.54;100.00
6204;BME280;3135;42.602;23.468;2022-11-09T02:10:12;93544.88;;;10.53;100.00
6204;BME280;3135;42.602;23.468;2022-11-09T02:12:38;93550.50;;;10.57;100.00
6204;BME280;3135;42.602;23.468;2022-11-09T02:15:06;93558.25;;;10.53;100.00
6204;BME280;3135;42.602;23.468;2022-11-09T02:17:33;93550.50;;;10.57;100.00
6204;BME280;3135;42.602;23.468;2022-11-09T02:19:59;93535.28;;;10.47;100.00
6204;BME280;3135;42.602;23.468;2022-11-09T02:22:25;93552.66;;;10.44;100.00
6204;BME280;3135;42.602;23.468;2022-11-09T02:24:51;93564.41;;;10.43;100.00
6204;BME280;3135;42.602;23.468;2022-11-09T02:27:18;93538.50;;;10.29;100.00
6204;BME280;3135;42.602;23.468;2022-11-09T02:29:45;93547.59;;;10.28;100.00
6204;BME280;3135;42.602;23.468;2022-11-09T02:32:24;93564.94;;;10.45;100.00
6204;BME280;3135;42.602;23.468;2022-11-09T02:34:51;93549.19;;;10.34;100.00
6204;BME280;3135;42.602;23.468;2022-11-09T02:37:37;93551.59;;;10.35;100.00
6204;BME280;3135;42.602;23.468;2022-11-09T02:40:06;93561.47;;;10.30;100.00
6204;BME280;3135;42.602;23.468;2022-11-09T02:42:34;93556.13;;;10.30;100.00
6204;BME280;3135;42.602;23.468;2022-11-09T02:45:00;93572.44;;;10.33;100.00
6204;BME280;3135;42.602;23.468;2022-11-09T02:47:25;93539.31;;;9.98;100.00
6204;BME280;3135;42.602;23.468;2022-11-09T02:49:51;93563.06;;;10.15;100.00
6204;BME280;3135;42.602;23.468;2022-11-09T02:52:17;93560.94;;;10.02;100.00
6204;BME280;3135;42.602;23.468;2022-11-09T02:54:43;93565.22;;;10.08;100.00
6204;BME280;3135;42.602;23.468;2022-11-09T02:57:08;93553.41;;;9.73;100.00
6204;BME280;3135;42.602;23.468;2022-11-09T02:59:34;93555.03;;;9.85;100.00
6204;BME280;3135;42.602;23.468;2022-11-09T03:01:59;93574.81;;;9.94;100.00
6204;BME280;3135;42.602;23.468;2022-11-09T03:04:25;93568.91;;;9.97;100.00
6204;BME280;3135;42.602;23.468;2022-11-09T03:06:51;93571.84;;;9.85;100.00
6204;BME280;3135;42.602;23.468;2022-11-09T03:09:17;93576.13;;;9.91;100.00
6204;BME280;3135;42.602;23.468;2022-11-09T03:11:43;93561.44;;;9.79;100.00
6204;BME280;3135;42.602;23.468;2022-11-09T03:14:09;93573.97;;;9.78;100.00
6204;BME280;3135;42.602;23.468;2022-11-09T03:16:35;93572.88;;;9.69;100.00
6204;BME280;3135;42.602;23.468;2022-11-09T03:19:01;93564.84;;;9.54;100.00
6204;BME280;3135;42.602;23.468;2022-11-09T03:21:27;93576.91;;;9.71;100.00
6204;BME280;3135;42.602;23.468;2022-11-09T03:23:53;93579.31;;;9.73;100.00
6204;BME280;3135;42.602;23.468;2022-11-09T03:26:19;93564.63;;;9.60;100.00
6204;BME280;3135;42.602;23.468;2022-11-09T03:28:45;93574.19;;;9.51;100.00
6204;BME280;3135;42.602;23.468;2022-11-09T03:31:11;93546.66;;;9.30;100.00
6204;BME280;3135;42.602;23.468;2022-11-09T03:33:36;93555.44;;;9.20;100.00
6204;BME280;3135;42.602;23.468;2022-11-09T03:36:02;93552.25;;;9.29;100.00
6204;BME280;3135;42.602;23.468;2022-11-09T03:38:28;93551.47;;;9.38;100.00
6204;BME280;3135;42.602;23.468;2022-11-09T03:40:54;93547.69;;;9.19;100.00
6204;BME280;3135;42.602;23.468;2022-11-09T03:43:20;93571.44;;;9.20;100.00
6204;BME280;3135;42.602;23.468;2022-11-09T03:45:46;93581.00;;;9.16;100.00
6204;BME280;3135;42.602;23.468;2022-11-09T03:48:12;93575.63;;;9.06;100.00
6204;BME280;3135;42.602;23.468;2022-11-09T03:50:37;93560.97;;;9.04;100.00
6204;BME280;3135;42.602;23.468;2022-11-09T03:53:08;93578.09;;;9.18;100.00
6204;BME280;3135;42.602;23.468;2022-11-09T03:55:34;93585.84;;;9.19;100.00
6204;BME280;3135;42.602;23.468;2022-11-09T03:58:00;93578.59;;;9.10;100.00
6204;BME280;3135;42.602;23.468;2022-11-09T04:00:26;93556.34;;;8.89;100.00
6204;BME280;3135;42.602;23.468;2022-11-09T04:02:51;93581.25;;;9.10;100.00
6204;BME280;3135;42.602;23.468;2022-11-09T04:05:17;93571.34;;;9.00;100.00
6204;BME280;3135;42.602;23.468;2022-11-09T04:07:51;93588.16;;;9.06;100.00
6204;BME280;3135;42.602;23.468;2022-11-09T04:10:18;93572.41;;;8.94;100.00
6204;BME280;3135;42.602;23.468;2022-11-09T04:12:44;93578.81;;;9.03;100.00
6204;BME280;3135;42.602;23.468;2022-11-09T04:15:10;93582.22;;;8.93;100.00
6204;BME280;3135;42.602;23.468;2022-11-09T04:17:36;93550.09;;;8.58;100.00
6204;BME280;3135;42.602;23.468;2022-11-09T04:20:01;93579.22;;;8.75;100.00
6204;BME280;3135;42.602;23.468;2022-11-09T04:22:27;93540.16;;;8.43;100.00
6204;BME280;3135;42.602;23.468;2022-11-09T04:24:52;93550.56;;;8.50;100.00
6204;BME280;3135;42.602;23.468;2022-11-09T04:27:18;93569.81;;;8.62;100.00
6204;BME280;3135;42.602;23.468;2022-11-09T04:29:44;93575.00;;;8.41;100.00
6204;BME280;3135;42.602;23.468;2022-11-09T04:32:09;93553.69;;;8.41;100.00
6204;BME280;3135;42.602;23.468;2022-11-09T04:34:34;93587.06;;;8.49;100.00
6204;BME280;3135;42.602;23.468;2022-11-09T04:37:00;93577.44;;;8.43;100.00
6204;BME280;3135;42.602;23.468;2022-11-09T04:39:25;93582.53;;;8.50;100.00
6204;BME280;3135;42.602;23.468;2022-11-09T04:41:51;93580.63;;;8.45;100.00
6204;BME280;3135;42.602;23.468;2022-11-09T04:44:16;93578.16;;;8.33;100.00
6204;BME280;3135;42.602;23.468;2022-11-09T04:46:42;93555.56;;;8.41;100.00
6204;BME280;3135;42.602;23.468;2022-11-09T04:49:07;93526.94;;;8.26;100.00
6204;BME280;3135;42.602;23.468;2022-11-09T04:51:33;93558.81;;;8.48;100.00
6204;BME280;3135;42.602;23.468;2022-11-09T04:53:58;93586.63;;;8.62;100.00
6204;BME280;3135;42.602;23.468;2022-11-09T04:56:23;93561.47;;;8.43;100.00
6204;BME280;3135;42.602;23.468;2022-11-09T04:58:49;93582.66;;;8.33;100.00
6204;BME280;3135;42.602;23.468;2022-11-09T05:01:14;93568.28;;;8.34;100.00
6204;BME280;3135;42.602;23.468;2022-11-09T05:03:40;93565.69;;;8.39;100.00
6204;BME280;3135;42.602;23.468;2022-11-09T05:06:06;93595.31;;;8.48;100.00
6204;BME280;3135;42.602;23.468;2022-11-09T05:08:54;93594.75;;;8.45;100.00
6204;BME280;3135;42.602;23.468;2022-11-09T05:11:20;93602.53;;;8.52;100.00
6204;BME280;3135;42.602;23.468;2022-11-09T05:13:46;93576.25;;;8.29;100.00
6204;BME280;3135;42.602;23.468;2022-11-09T05:16:12;93610.19;;;8.43;100.00
6204;BME280;3135;42.602;23.468;2022-11-09T05:18:38;93577.94;;;8.08;100.00
6204;BME280;3135;42.602;23.468;2022-11-09T05:21:04;93583.25;;;8.08;100.00
6204;BME280;3135;42.602;23.468;2022-11-09T05:23:30;93607.97;;;8.35;100.00
6204;BME280;3135;42.602;23.468;2022-11-09T05:26:14;93609.41;;;8.43;100.00
6204;BME280;3135;42.602;23.468;2022-11-09T05:28:39;93611.50;;;8.41;100.00
6204;BME280;3135;42.602;23.468;2022-11-09T05:31:05;93616.03;;;8.40;100.00
6204;BME280;3135;42.602;23.468;2022-11-09T05:33:31;93605.63;;;8.39;100.00
6204;BME280;3135;42.602;23.468;2022-11-09T05:35:56;93599.19;;;8.35;100.00
6204;BME280;3135;42.602;23.468;2022-11-09T05:38:23;93603.16;;;8.32;100.00
6204;BME280;3135;42.602;23.468;2022-11-09T05:40:50;93612.06;;;8.43;100.00
6204;BME280;3135;42.602;23.468;2022-11-09T05:43:15;93624.59;;;8.42;100.00
6204;BME280;3135;42.602;23.468;2022-11-09T05:45:41;93627.19;;;8.37;100.00
6204;BME280;3135;42.602;23.468;2022-11-09T05:48:07;93605.78;;;8.27;100.00
6204;BME280;3135;42.602;23.468;2022-11-09T05:50:33;93610.69;;;8.40;100.00
6204;BME280;3135;42.602;23.468;2022-11-09T05:52:59;93627.28;;;8.48;100.00
6204;BME280;3135;42.602;23.468;2022-11-09T05:55:25;93635.03;;;8.54;100.00
6204;BME280;3135;42.602;23.468;2022-11-09T05:57:50;93626.47;;;8.47;100.00
6204;BME280;3135;42.602;23.468;2022-11-09T06:00:16;93625.38;;;8.43;100.00
6204;BME280;3135;42.602;23.468;2022-11-09T06:02:42;93640.38;;;8.54;100.00
6204;BME280;3135;42.602;23.468;2022-11-09T06:05:07;93644.13;;;8.58;100.00
6204;BME280;3135;42.602;23.468;2022-11-09T06:07:33;93608.72;;;8.31;100.00
6204;BME280;3135;42.602;23.468;2022-11-09T06:09:58;93628.59;;;8.45;100.00
6204;BME280;3135;42.602;23.468;2022-11-09T06:12:24;93613.09;;;8.42;100.00
6204;BME280;3135;42.602;23.468;2022-11-09T06:14:49;93636.47;;;8.35;100.00
6204;BME280;3135;42.602;23.468;2022-11-09T06:17:15;93622.19;;;8.46;100.00
6204;BME280;3135;42.602;23.468;2022-11-09T06:19:40;93604.88;;;8.43;100.00
6204;BME280;3135;42.602;23.468;2022-11-09T06:22:06;93645.56;;;8.71;100.00
6204;BME280;3135;42.602;23.468;2022-11-09T06:24:31;93637.78;;;8.64;100.00
6204;BME280;3135;42.602;23.468;2022-11-09T06:26:57;93624.84;;;8.46;100.00
6204;BME280;3135;42.602;23.468;2022-11-09T06:29:22;93645.25;;;8.67;100.00
6204;BME280;3135;42.602;23.468;2022-11-09T06:31:47;93647.75;;;8.84;100.00
6204;BME280;3135;42.602;23.468;2022-11-09T06:34:14;93640.66;;;8.95;100.00
6204;BME280;3135;42.602;23.468;2022-11-09T06:36:39;93652.44;;;9.04;100.00
6204;BME280;3135;42.602;23.468;2022-11-09T06:39:04;93645.47;;;9.03;100.00
6204;BME280;3135;42.602;23.468;2022-11-09T06:41:32;93638.59;;;9.12;100.00
6204;BME280;3135;42.602;23.468;2022-11-09T06:43:58;93642.84;;;9.08;100.00
6204;BME280;3135;42.602;23.468;2022-11-09T06:46:23;93660.25;;;9.26;100.00
6204;BME280;3135;42.602;23.468;2022-11-09T06:48:49;93653.63;;;9.29;100.00
6204;BME280;3135;42.602;23.468;2022-11-09T06:51:14;93644.78;;;9.18;100.00
6204;BME280;3135;42.602;23.468;2022-11-09T06:53:39;93642.34;;;9.16;100.00
6204;BME280;3135;42.602;23.468;2022-11-09T06:56:06;93654.41;;;9.29;100.00
6204;BME280;3135;42.602;23.468;2022-11-09T06:58:32;93655.22;;;9.30;100.00
6204;BME280;3135;42.602;23.468;2022-11-09T07:00:58;93644.53;;;9.25;100.00
6204;BME280;3135;42.602;23.468;2022-11-09T07:03:24;93653.44;;;9.51;100.00
6204;BME280;3135;42.602;23.468;2022-11-09T07:05:50;93649.16;;;9.50;100.00
6204;BME280;3135;42.602;23.468;2022-11-09T07:08:17;93630.72;;;9.38;100.00
6204;BME280;3135;42.602;23.468;2022-11-09T07:10:44;93652.09;;;9.53;100.00
6204;BME280;3135;42.602;23.468;2022-11-09T07:13:09;93625.41;;;9.48;100.00
6204;BME280;3135;42.602;23.468;2022-11-09T07:15:37;93645.25;;;9.78;100.00
6204;BME280;3135;42.602;23.468;2022-11-09T07:18:05;93650.06;;;9.81;100.00
6204;BME280;3135;42.602;23.468;2022-11-09T07:20:31;93633.75;;;9.67;100.00
6204;BME280;3135;42.602;23.468;2022-11-09T07:22:56;93628.34;;;9.46;100.00
6204;BME280;3135;42.602;23.468;2022-11-09T07:25:22;93645.78;;;9.75;100.00
6204;BME280;3135;42.602;23.468;2022-11-09T07:27:49;93637.19;;;9.57;100.00
6204;BME280;3135;42.602;23.468;2022-11-09T07:30:15;93643.66;;;9.82;100.00
6204;BME280;3135;42.602;23.468;2022-11-09T07:32:40;93627.00;;;9.44;100.00
6204;BME280;3135;42.602;23.468;2022-11-09T07:35:08;93646.25;;;9.51;100.00
6204;BME280;3135;42.602;23.468;2022-11-09T07:37:34;93637.81;;;9.90;100.00
6204;BME280;3135;42.602;23.468;2022-11-09T07:39:59;93632.50;;;10.05;100.00
6204;BME280;3135;42.602;23.468;2022-11-09T07:42:25;93628.22;;;9.99;100.00
6204;BME280;3135;42.602;23.468;2022-11-09T07:44:51;93623.41;;;10.01;100.00
6204;BME280;3135;42.602;23.468;2022-11-09T07:47:17;93619.41;;;10.19;100.00
6204;BME280;3135;42.602;23.468;2022-11-09T07:49:43;93628.81;;;10.37;100.00
6204;BME280;3135;42.602;23.468;2022-11-09T07:52:09;93635.75;;;10.43;100.00
6204;BME280;3135;42.602;23.468;2022-11-09T07:54:35;93625.28;;;10.16;100.00
6204;BME280;3135;42.602;23.468;2022-11-09T07:57:00;93624.97;;;9.92;100.00
6204;BME280;3135;42.602;23.468;2022-11-09T07:59:26;93634.66;;;10.18;100.00
6204;BME280;3135;42.602;23.468;2022-11-09T08:01:52;93627.47;;;10.24;100.00
6204;BME280;3135;42.602;23.468;2022-11-09T08:04:17;93611.69;;;10.17;100.00
6204;BME280;3135;42.602;23.468;2022-11-09T08:06:43;93628.53;;;10.28;100.00
6204;BME280;3135;42.602;23.468;2022-11-09T08:09:08;93645.91;;;10.31;100.00
6204;BME280;3135;42.602;23.468;2022-11-09T08:11:34;93642.69;;;10.44;100.00
6204;BME280;3135;42.602;23.468;2022-11-09T08:13:59;93642.69;;;10.39;100.00
6204;BME280;3135;42.602;23.468;2022-11-09T08:16:24;93629.59;;;10.53;100.00
6204;BME280;3135;42.602;23.468;2022-11-09T08:18:50;93644.31;;;10.60;100.00
6204;BME280;3135;42.602;23.468;2022-11-09T08:21:16;93633.63;;;10.55;100.00
6204;BME280;3135;42.602;23.468;2022-11-09T08:23:42;93642.97;;;10.78;100.00
6204;BME280;3135;42.602;23.468;2022-11-09T08:26:08;93630.41;;;10.68;100.00
6204;BME280;3135;42.602;23.468;2022-11-09T08:28:34;93633.56;;;10.86;100.00
6204;BME280;3135;42.602;23.468;2022-11-09T08:31:02;93642.38;;;10.91;100.00
6204;BME280;3135;42.602;23.468;2022-11-09T08:33:31;93654.16;;;11.11;100.00
6204;BME280;3135;42.602;23.468;2022-11-09T08:35:58;93647.91;;;11.36;100.00
6204;BME280;3135;42.602;23.468;2022-11-09T08:38:23;93633.19;;;11.33;100.00
6204;BME280;3135;42.602;23.468;2022-11-09T08:40:49;93629.25;;;11.15;100.00
6204;BME280;3135;42.602;23.468;2022-11-09T08:43:14;93635.38;;;11.21;100.00
6204;BME280;3135;42.602;23.468;2022-11-09T08:45:40;93643.03;;;11.53;100.00
6204;BME280;3135;42.602;23.468;2022-11-09T08:48:06;93635.00;;;11.58;100.00
6204;BME280;3135;42.602;23.468;2022-11-09T08:50:34;93634.69;;;11.65;100.00
6204;BME280;3135;42.602;23.468;2022-11-09T08:53:01;93641.91;;;11.64;100.00
6204;BME280;3135;42.602;23.468;2022-11-09T08:55:27;93648.56;;;11.82;100.00
6204;BME280;3135;42.602;23.468;2022-11-09T08:57:57;93652.50;;;12.00;100.00
6204;BME280;3135;42.602;23.468;2022-11-09T09:00:23;93642.00;;;12.03;100.00
6204;BME280;3135;42.602;23.468;2022-11-09T09:02:48;93656.19;;;12.04;100.00
6204;BME280;3135;42.602;23.468;2022-11-09T09:05:14;93648.91;;;12.15;100.00
6204;BME280;3135;42.602;23.468;2022-11-09T09:07:41;93646.78;;;12.12;100.00
6204;BME280;3135;42.602;23.468;2022-11-09T09:10:06;93648.66;;;12.11;100.00
6204;BME280;3135;42.602;23.468;2022-11-09T09:12:32;93614.41;;;12.03;100.00
6204;BME280;3135;42.602;23.468;2022-11-09T09:14:58;93639.53;;;12.12;100.00
6204;BME280;3135;42.602;23.468;2022-11-09T09:17:23;93653.00;;;12.41;100.00
6204;BME280;3135;42.602;23.468;2022-11-09T09:19:49;93645.97;;;12.50;100.00
6204;BME280;3135;42.602;23.468;2022-11-09T09:22:14;93637.44;;;12.48;100.00
6204;BME280;3135;42.602;23.468;2022-11-09T09:24:40;93658.50;;;12.60;100.00
6204;BME280;3135;42.602;23.468;2022-11-09T09:27:06;93635.25;;;12.50;100.00
6204;BME280;3135;42.602;23.468;2022-11-09T09:29:31;93627.97;;;12.56;100.00
6204;BME280;3135;42.602;23.468;2022-11-09T09:31:56;93632.69;;;12.69;100.00
6204;BME280;3135;42.602;23.468;2022-11-09T09:34:22;93642.72;;;12.88;100.00
6204;BME280;3135;42.602;23.468;2022-11-09T09:36:47;93645.31;;;12.98;100.00
6204;BME280;3135;42.602;23.468;2022-11-09T09:39:13;93635.94;;;12.95;100.00
6204;BME280;3135;42.602;23.468;2022-11-09T09:41:59;93633.91;;;13.11;100.00
6204;BME280;3135;42.602;23.468;2022-11-09T09:50:11;93631.06;;;13.32;100.00
6204;BME280;3135;42.602;23.468;2022-11-09T09:52:39;93630.03;;;13.51;100.00
6204;BME280;3135;42.602;23.468;2022-11-09T09:57:53;93619.78;;;13.53;100.00
6204;BME280;3135;42.602;23.468;2022-11-09T10:00:24;93626.53;;;13.51;100.00
6204;BME280;3135;42.602;23.468;2022-11-09T10:02:51;93625.69;;;13.32;100.00
6204;BME280;3135;42.602;23.468;2022-11-09T10:05:18;93628.59;;;13.35;100.00
6204;BME280;3135;42.602;23.468;2022-11-09T10:07:56;93608.06;;;13.20;100.00
6204;BME280;3135;42.602;23.468;2022-11-09T10:10:38;93618.69;;;13.30;100.00
6204;BME280;3135;42.602;23.468;2022-11-09T10:13:37;93616.31;;;13.53;100.00
6204;BME280;3135;42.602;23.468;2022-11-09T10:16:40;93619.91;;;13.43;100.00
6204;BME280;3135;42.602;23.468;2022-11-09T10:20:06;93607.16;;;13.30;100.00
6204;BME280;3135;42.602;23.468;2022-11-09T10:22:16;93612.03;;;13.52;100.00
6204;BME280;3135;42.602;23.468;2022-11-09T10:25:05;93609.53;;;13.79;100.00
6204;BME280;3135;42.602;23.468;2022-11-09T10:27:35;93605.69;;;13.86;100.00
6204;BME280;3135;42.602;23.468;2022-11-09T10:30:11;93606.56;;;14.00;100.00
6204;BME280;3135;42.602;23.468;2022-11-09T10:32:38;93591.75;;;14.02;100.00
6204;BME280;3135;42.602;23.468;2022-11-09T10:35:16;93609.97;;;14.05;100.00
6204;BME280;3135;42.602;23.468;2022-11-09T10:37:45;93600.81;;;14.06;100.00
6204;BME280;3135;42.602;23.468;2022-11-09T10:42:36;93591.75;;;14.02;100.00
6204;BME280;3135;42.602;23.468;2022-11-09T10:45:20;93590.66;;;14.03;100.00
6204;BME280;3135;42.602;23.468;2022-11-09T10:47:50;93587.25;;;13.98;100.00
6204;BME280;3135;42.602;23.468;2022-11-09T10:52:46;93579.38;;;14.20;100.00
6204;BME280;3135;42.602;23.468;2022-11-09T10:55:22;93579.25;;;14.30;100.00
6204;BME280;3135;42.602;23.468;2022-11-09T10:57:54;93578.84;;;14.37;100.00
6204;BME280;3135;42.602;23.468;2022-11-09T11:00:21;93577.91;;;14.47;100.00
6204;BME280;3135;42.602;23.468;2022-11-09T11:02:47;93575.69;;;14.54;100.00
6204;BME280;3135;42.602;23.468;2022-11-09T11:07:43;93575.09;;;14.71;100.00
6204;BME280;3135;42.602;23.468;2022-11-09T11:13:25;93554.34;;;14.39;100.00
6204;BME280;3135;42.602;23.468;2022-11-09T11:15:40;93565.03;;;14.76;100.00
6204;BME280;3135;42.602;23.468;2022-11-09T11:18:19;93556.56;;;14.69;100.00
6204;BME280;3135;42.602;23.468;2022-11-09T11:20:46;93546.94;;;14.96;100.00
6204;BME280;3135;42.602;23.468;2022-11-09T11:23:20;93567.31;;;15.29;100.00
6204;BME280;3135;42.602;23.468;2022-11-09T11:28:29;93548.16;;;15.17;100.00
6204;BME280;3135;42.602;23.468;2022-11-09T11:30:56;93545.47;;;15.17;100.00
6204;BME280;3135;42.602;23.468;2022-11-09T11:33:21;93559.41;;;15.19;100.00
6204;BME280;3135;42.602;23.468;2022-11-09T11:35:48;93548.16;;;15.17;100.00
6204;BME280;3135;42.602;23.468;2022-11-09T11:38:31;93553.03;;;15.29;100.00
6204;BME280;3135;42.602;23.468;2022-11-09T11:46:46;93547.38;;;15.30;100.00
6204;BME280;3135;42.602;23.468;2022-11-09T11:55:15;93544.47;;;15.13;100.00
6204;BME280;3135;42.602;23.468;2022-11-09T12:00:13;93529.50;;;15.07;100.00
6204;BME280;3135;42.602;23.468;2022-11-09T12:02:46;93545.56;;;15.40;100.00
6204;BME280;3135;42.602;23.468;2022-11-09T12:14:21;93541.34;;;15.47;100.00
6204;BME280;3135;42.602;23.468;2022-11-09T12:16:47;93521.13;;;15.08;100.00
6204;BME280;3135;42.602;23.468;2022-11-09T12:24:53;93535.91;;;15.25;100.00
6204;BME280;3135;42.602;23.468;2022-11-09T12:27:25;93529.69;;;15.38;100.00
6204;BME280;3135;42.602;23.468;2022-11-09T12:32:57;93534.59;;;15.36;100.00
6204;BME280;3135;42.602;23.468;2022-11-09T12:35:31;93509.66;;;15.30;100.00
6204;BME280;3135;42.602;23.468;2022-11-09T12:40:43;93517.16;;;15.20;100.00
6204;BME280;3135;42.602;23.468;2022-11-09T12:43:19;93521.81;;;15.28;100.00
6204;BME280;3135;42.602;23.468;2022-11-09T12:45:46;93512.84;;;14.91;100.00
6204;BME280;3135;42.602;23.468;2022-11-09T12:48:26;93513.47;;;15.02;100.00
6204;BME280;3135;42.602;23.468;2022-11-09T12:50:54;93512.16;;;15.13;100.00
6204;BME280;3135;42.602;23.468;2022-11-09T12:53:24;93506.88;;;15.22;100.00
6204;BME280;3135;42.602;23.468;2022-11-09T12:56:19;93512.47;;;15.12;100.00
6204;BME280;3135;42.602;23.468;2022-11-09T12:58:43;93520.75;;;15.15;100.00
6204;BME280;3135;42.602;23.468;2022-11-09T13:01:43;93506.88;;;15.08;100.00
6204;BME280;3135;42.602;23.468;2022-11-09T13:04:00;93514.38;;;15.11;100.00
6204;BME280;3135;42.602;23.468;2022-11-09T13:06:31;93524.03;;;15.12;100.00
6204;BME280;3135;42.602;23.468;2022-11-09T13:09:44;93524.03;;;15.12;100.00
6204;BME280;3135;42.602;23.468;2022-11-09T13:11:48;93525.81;;;15.03;100.00
6204;BME280;3135;42.602;23.468;2022-11-09T13:16:53;93520.72;;;14.88;100.00
6204;BME280;3135;42.602;23.468;2022-11-09T13:22:06;93517.50;;;14.72;100.00
6204;BME280;3135;42.602;23.468;2022-11-09T13:24:55;93525.47;;;14.63;100.00
6204;BME280;3135;42.602;23.468;2022-11-09T13:27:40;93524.97;;;14.61;100.00
6204;BME280;3135;42.602;23.468;2022-11-09T13:30:40;93518.00;;;14.60;100.00
6204;BME280;3135;42.602;23.468;2022-11-09T13:38:19;93512.59;;;14.27;100.00
6204;BME280;3135;42.602;23.468;2022-11-09T13:43:36;93514.00;;;14.06;100.00
6204;BME280;3135;42.602;23.468;2022-11-09T13:48:44;93518.38;;;13.83;100.00
6204;BME280;3135;42.602;23.468;2022-11-09T13:51:14;93515.44;;;13.66;100.00
6204;BME280;3135;42.602;23.468;2022-11-09T13:56:54;93505.47;;;13.66;100.00
6204;BME280;3135;42.602;23.468;2022-11-09T13:59:44;93508.81;;;13.58;100.00
6204;BME280;3135;42.602;23.468;2022-11-09T14:02:20;93515.34;;;13.52;100.00
6204;BME280;3135;42.602;23.468;2022-11-09T14:04:46;93502.72;;;13.34;100.00
6204;BME280;3135;42.602;23.468;2022-11-09T14:23:53;93507.50;;;12.65;100.00
6204;BME280;3135;42.602;23.468;2022-11-09T14:26:23;93519.66;;;12.57;100.00
6204;BME280;3135;42.602;23.468;2022-11-09T14:28:49;93502.41;;;12.39;100.00
6204;BME280;3135;42.602;23.468;2022-11-09T14:31:29;93518.78;;;12.38;100.00
6204;BME280;3135;42.602;23.468;2022-11-09T14:34:02;93516.03;;;12.43;100.00
6204;BME280;3135;42.602;23.468;2022-11-09T14:36:29;93505.72;;;12.26;100.00
6204;BME280;3135;42.602;23.468;2022-11-09T14:38:56;93498.38;;;12.08;100.00
6204;BME280;3135;42.602;23.468;2022-11-09T14:41:24;93509.81;;;12.18;100.00
6204;BME280;3135;42.602;23.468;2022-11-09T14:43:52;93500.81;;;12.09;100.00
6204;BME280;3135;42.602;23.468;2022-11-09T14:46:21;93508.38;;;11.97;100.00